pmo.gov.pk alexa rank chart, pmo.gov.pk alexa rank daily changes

pmo.gov.pk alexa rank chart, pmo.gov.pk alexa rank daily changes

pmo.gov.pk
Actual rank:
158 024

RANK HISTORY

Date Rank Diff
2017/06/28 158 024 +3 013
2017/06/27 155 011 +2 206
2017/06/26 152 805 +2 640
2017/06/25 150 165 +3 254
2017/06/24 146 911 -100
2017/06/23 147 011 -253
2017/06/22 147 264 -6 040
2017/06/21 153 304 -301
2017/06/20 153 605 +889
2017/06/19 152 716 +2 974
2017/06/18 149 742 +4 211
2017/06/17 145 531 +3 644
2017/06/16 141 887 +3 546
2017/06/15 138 341 +162
2017/06/14 138 179 -849
2017/06/13 139 028 +2 311
2017/06/12 136 717 +2 362
2017/06/11 134 355 +1 299
2017/06/10 133 056 +689
2017/06/09 132 367 -3 878
2017/06/08 136 245 +1 611
2017/06/07 134 634 +1 998
2017/06/06 132 636 -1 199
2017/06/05 133 835 +372
2017/06/04 133 463 -1 428
2017/06/03 134 891 -344
2017/06/02 135 235 -1 621
2017/06/01 136 856 +579
2017/05/31 136 277 +920
2017/05/30 135 357 -381
2017/05/29 135 738 +699
2017/05/28 135 039 -85
2017/05/27 135 124 +1 067
2017/05/26 134 057 -188
2017/05/25 134 245 -2 058
2017/05/24 136 303 +677
2017/05/23 135 626 +998
2017/05/22 134 628 -205
2017/05/21 134 833 +2 767
2017/05/20 132 066 +1 561
2017/05/19 130 505 +2 722
2017/05/18 127 783 -2 986
2017/05/17 130 769 +19 661
2017/05/16 111 108 +13 944
2017/05/15 97 164 +5 967
2017/05/14 91 197 +4 518
2017/05/13 86 679 +1 922
2017/05/12 84 757 +800
2017/05/11 83 957 +1 067
2017/05/10 82 890 +2 447
2017/05/09 80 443 +2 675
2017/05/08 77 768 +2 259
2017/05/07 75 509 +1 354
2017/05/06 74 155 +2 726
2017/05/05 71 429 +1 620
2017/05/04 69 809 +1 193
2017/05/03 68 616 +1 069
2017/05/02 67 547 +1 875
2017/05/01 65 672 +1 752
2017/04/30 63 920 +2 416
2017/04/29 61 504

WIDGET FOR YOUR SITE

DOMAINS WITH THE NEAREST RANK

Domain Rank
serverminer.com 158 019
speedbinary.com 158 020
idrc.ca 158 021
aliphia.com 158 022
codefi.re 158 023
pmo.gov.pk 158 024
xxxlesnina.hr 158 025
ksamata.ru 158 026
carved.com 158 027
thebeatles.com 158 028
sysmex.co.jp 158 029

DOMAINS WITH THE NEAREST RANK BY TLD .gov.pk

Domain Rank
ep.gov.pk 150 060
pmo.gov.pk 158 024
mofa.gov.pk 166 704